createdAt,value
2019-05-12T00:00:48.572Z,101765.00
2019-05-12T00:03:19.807Z,101774.00
2019-05-12T00:05:50.648Z,101771.00
2019-05-12T00:08:21.262Z,101773.00
2019-05-12T00:10:52.831Z,101777.00
2019-05-12T00:13:23.324Z,101776.00
2019-05-12T00:15:54.197Z,101786.00
2019-05-12T00:18:25.043Z,101788.00
2019-05-12T00:21:01.101Z,101793.00
2019-05-12T00:23:32.073Z,101788.00
2019-05-12T00:26:02.879Z,101800.00
2019-05-12T00:28:34.455Z,101803.00
2019-05-12T00:31:05.294Z,101812.00
2019-05-12T00:33:35.825Z,101799.00
2019-05-12T00:36:29.224Z,101808.00
2019-05-12T00:38:59.874Z,101814.00
2019-05-12T00:41:31.546Z,101820.00
2019-05-12T00:44:02.079Z,101821.00
2019-05-12T00:46:33.153Z,101827.00
2019-05-12T00:49:03.691Z,101833.00
2019-05-12T00:51:35.234Z,101831.00
2019-05-12T00:54:05.688Z,101839.00
2019-05-12T00:56:38.957Z,101842.00
2019-05-12T00:59:16.928Z,101846.00
2019-05-12T01:01:48.926Z,101849.00
2019-05-12T01:04:19.661Z,101864.00
2019-05-12T01:06:52.022Z,101872.00
2019-05-12T01:09:22.620Z,101869.00
2019-05-12T01:11:53.133Z,101881.00
2019-05-12T01:14:23.641Z,101881.00
2019-05-12T01:16:54.169Z,101881.00
2019-05-12T01:19:24.660Z,101877.00
2019-05-12T01:21:58.716Z,101887.00
2019-05-12T01:24:29.319Z,101880.00
2019-05-12T01:27:00.134Z,101883.00
2019-05-12T01:29:30.825Z,101886.00
2019-05-12T01:32:25.350Z,101889.00
2019-05-12T01:34:57.771Z,101889.00
2019-05-12T01:37:28.684Z,101882.00
2019-05-12T01:40:00.068Z,101893.00
2019-05-12T01:42:31.585Z,101891.00
2019-05-12T01:45:05.877Z,101894.00
2019-05-12T01:47:38.195Z,101900.00
2019-05-12T01:50:09.409Z,101907.00
2019-05-12T01:52:40.017Z,101918.00
2019-05-12T01:55:10.502Z,101908.00
2019-05-12T01:57:41.313Z,101914.00
2019-05-12T02:00:13.608Z,101917.00
2019-05-12T02:02:44.078Z,101926.00
2019-05-12T02:05:14.606Z,101928.00
2019-05-12T02:07:51.161Z,101932.00
2019-05-12T02:10:22.122Z,101936.00
2019-05-12T02:12:52.639Z,101936.00
2019-05-12T02:15:24.306Z,101916.00
2019-05-12T02:17:55.590Z,101929.00
2019-05-12T02:20:28.522Z,101938.00
2019-05-12T02:22:58.738Z,101948.00
2019-05-12T02:25:29.175Z,101949.00
2019-05-12T02:27:59.660Z,101958.00
2019-05-12T02:30:30.915Z,101967.00
2019-05-12T02:33:04.965Z,101971.00
2019-05-12T02:35:35.468Z,101967.00
2019-05-12T02:38:06.347Z,101961.00
2019-05-12T02:40:46.903Z,101970.00
2019-05-12T02:43:17.462Z,101965.00
2019-05-12T02:45:48.374Z,101975.00
2019-05-12T02:48:18.898Z,101981.00
2019-05-12T02:50:49.430Z,101976.00
2019-05-12T02:53:19.964Z,101981.00
2019-05-12T02:55:54.535Z,101991.00
2019-05-12T02:58:34.618Z,101990.00
2019-05-12T03:01:05.613Z,102004.00
2019-05-12T03:03:39.567Z,102009.00
2019-05-12T03:06:10.048Z,102015.00
2019-05-12T03:08:45.021Z,102016.00
2019-05-12T03:11:15.667Z,102020.00
2019-05-12T03:13:46.189Z,102013.00
2019-05-12T03:16:16.715Z,102031.00
2019-05-12T03:18:47.460Z,102026.00
2019-05-12T03:21:24.297Z,102030.00
2019-05-12T03:23:55.160Z,102029.00
2019-05-12T03:26:25.788Z,102036.00
2019-05-12T03:28:56.298Z,102041.00
2019-05-12T03:31:31.192Z,102027.00
2019-05-12T03:34:00.711Z,102041.00
2019-05-12T03:36:34.754Z,102055.00
2019-05-12T03:39:05.128Z,102053.00
2019-05-12T03:41:35.491Z,102057.00
2019-05-12T03:44:06.539Z,102067.00
2019-05-12T03:46:37.692Z,102052.00
2019-05-12T03:49:08.880Z,102064.00
2019-05-12T03:51:39.397Z,102068.00
2019-05-12T03:54:09.857Z,102064.00
2019-05-12T03:56:41.270Z,102060.00
2019-05-12T03:59:14.670Z,102069.00
2019-05-12T04:01:45.344Z,102059.00
2019-05-12T04:04:16.003Z,102076.00
2019-05-12T04:06:46.505Z,102076.00
2019-05-12T04:09:16.980Z,102072.00
2019-05-12T04:11:47.789Z,102086.00
2019-05-12T04:14:18.297Z,102094.00
2019-05-12T04:16:48.748Z,102087.00
2019-05-12T04:19:19.303Z,102098.00
2019-05-12T04:21:50.135Z,102103.00
2019-05-12T04:24:20.637Z,102100.00
2019-05-12T04:26:51.496Z,102104.00
2019-05-12T04:29:24.862Z,102109.00
2019-05-12T04:31:54.493Z,102111.00
2019-05-12T04:34:25.430Z,102120.00
2019-05-12T04:36:55.894Z,102120.00
2019-05-12T04:39:26.375Z,102126.00
2019-05-12T04:41:57.216Z,102127.00
2019-05-12T04:44:27.683Z,102128.00
2019-05-12T04:46:58.498Z,102129.00
2019-05-12T04:49:29.038Z,102132.00
2019-05-12T04:51:59.903Z,102141.00
2019-05-12T04:54:30.379Z,102135.00
2019-05-12T04:57:03.977Z,102152.00
2019-05-12T04:59:34.759Z,102157.00
2019-05-12T05:02:05.838Z,102160.00
2019-05-12T05:04:36.403Z,102163.00
2019-05-12T05:07:07.197Z,102166.00
2019-05-12T05:09:37.745Z,102162.00
2019-05-12T05:12:08.599Z,102179.00
2019-05-12T05:14:39.087Z,102184.00
2019-05-12T05:17:09.606Z,102187.00
2019-05-12T05:19:40.126Z,102186.00
2019-05-12T05:22:10.665Z,102191.00
2019-05-12T05:24:41.192Z,102196.00
2019-05-12T05:27:13.328Z,102205.00
2019-05-12T05:29:44.672Z,102202.00
2019-05-12T05:32:15.492Z,102209.00
2019-05-12T05:34:55.839Z,102221.00
2019-05-12T05:37:18.957Z,102214.00
2019-05-12T05:39:54.083Z,102217.00
2019-05-12T05:42:30.682Z,102216.00
2019-05-12T05:44:57.546Z,102218.00
2019-05-12T05:47:28.804Z,102216.00
2019-05-12T05:49:59.433Z,102233.00
2019-05-12T05:52:33.311Z,102241.00
2019-05-12T05:55:05.701Z,102247.00
2019-05-12T05:57:35.365Z,102242.00
2019-05-12T06:00:17.492Z,102252.00
2019-05-12T06:02:40.648Z,102249.00
2019-05-12T06:05:11.550Z,102255.00
2019-05-12T06:07:44.137Z,102257.00
2019-05-12T06:10:14.652Z,102263.00
2019-05-12T06:12:50.538Z,102263.00
2019-05-12T06:15:17.689Z,102267.00
2019-05-12T06:17:48.181Z,102261.00
2019-05-12T06:20:18.895Z,102261.00
2019-05-12T06:22:54.624Z,102271.00
2019-05-12T06:25:26.428Z,102267.00
2019-05-12T06:28:00.042Z,102278.00
2019-05-12T06:30:28.347Z,102272.00
2019-05-12T06:32:59.028Z,102276.00
2019-05-12T06:35:30.994Z,102283.00
2019-05-12T06:38:04.534Z,102278.00
2019-05-12T06:40:40.943Z,102289.00
2019-05-12T06:43:06.943Z,102281.00
2019-05-12T06:45:42.644Z,102302.00
2019-05-12T06:48:09.744Z,102285.00
2019-05-12T06:50:40.302Z,102298.00
2019-05-12T06:53:10.926Z,102304.00
2019-05-12T06:55:43.311Z,102300.00
2019-05-12T06:58:14.177Z,102304.00
2019-05-12T07:00:44.561Z,102313.00
2019-05-12T07:03:19.333Z,102318.00
2019-05-12T07:05:49.183Z,102322.00
2019-05-12T07:08:27.590Z,102328.00
2019-05-12T07:11:01.804Z,102323.00
2019-05-12T07:13:29.486Z,102323.00
2019-05-12T07:15:59.199Z,102323.00
2019-05-12T07:18:32.831Z,102332.00
2019-05-12T07:21:04.014Z,102320.00
2019-05-12T07:23:34.100Z,102330.00
2019-05-12T07:26:13.970Z,102331.00
2019-05-12T07:28:40.440Z,102327.00
2019-05-12T07:31:15.367Z,102334.00
2019-05-12T07:33:46.172Z,102326.00
2019-05-12T07:36:19.685Z,102332.00
2019-05-12T07:38:55.907Z,102323.00
2019-05-12T07:41:24.523Z,102318.00
2019-05-12T07:44:00.769Z,102327.00
2019-05-12T07:46:30.479Z,102340.00
2019-05-12T07:49:01.152Z,102333.00
2019-05-12T07:51:38.417Z,102333.00
2019-05-12T07:54:05.669Z,102329.00
2019-05-12T07:56:36.141Z,102335.00
2019-05-12T07:59:06.518Z,102343.00
2019-05-12T08:01:48.150Z,102349.00
2019-05-12T08:04:09.544Z,102342.00
2019-05-12T08:06:42.458Z,102343.00
2019-05-12T08:09:13.584Z,102343.00
2019-05-12T08:11:45.127Z,102352.00
2019-05-12T08:14:25.860Z,102348.00
2019-05-12T08:16:47.750Z,102351.00
2019-05-12T08:19:23.764Z,102350.00
2019-05-12T08:21:51.019Z,102350.00
2019-05-12T08:24:23.713Z,102340.00
2019-05-12T08:27:01.425Z,102355.00
2019-05-12T08:29:26.636Z,102361.00
2019-05-12T08:31:57.267Z,102356.00
2019-05-12T08:34:30.790Z,102364.00
2019-05-12T08:37:04.150Z,102369.00
2019-05-12T08:39:38.974Z,102357.00
2019-05-12T08:42:09.664Z,102345.00
2019-05-12T08:44:40.789Z,102363.00
2019-05-12T08:47:12.815Z,102356.00
2019-05-12T08:49:52.280Z,102363.00
2019-05-12T08:52:16.429Z,102371.00
2019-05-12T08:54:49.326Z,102378.00
2019-05-12T08:57:20.177Z,102388.00
2019-05-12T08:59:54.687Z,102392.00
2019-05-12T09:02:24.060Z,102389.00
2019-05-12T09:04:55.831Z,102389.00
2019-05-12T09:07:30.289Z,102378.00
2019-05-12T09:10:00.453Z,102381.00
2019-05-12T09:12:33.594Z,102372.00
2019-05-12T09:15:04.739Z,102373.00
2019-05-12T09:17:42.426Z,102374.00
2019-05-12T09:20:08.793Z,102372.00
2019-05-12T09:22:39.558Z,102391.00
2019-05-12T09:25:10.100Z,102393.00
2019-05-12T09:27:45.581Z,102394.00
2019-05-12T09:30:14.279Z,102399.00
2019-05-12T09:32:49.908Z,102408.00
2019-05-12T09:35:16.911Z,102392.00
2019-05-12T09:37:47.316Z,102388.00
2019-05-12T09:40:20.577Z,102392.00
2019-05-12T09:42:50.664Z,102376.00
2019-05-12T09:45:21.717Z,102394.00
2019-05-12T09:47:53.975Z,102373.00
2019-05-12T09:50:25.634Z,102391.00
2019-05-12T09:53:00.842Z,102386.00
2019-05-12T09:55:28.965Z,102378.00
2019-05-12T09:57:59.807Z,102395.00
2019-05-12T10:00:35.795Z,102397.00
2019-05-12T10:03:08.370Z,102392.00
2019-05-12T10:05:40.986Z,102393.00
2019-05-12T10:08:09.657Z,102391.00
2019-05-12T10:10:40.813Z,102389.00
2019-05-12T10:13:13.847Z,102393.00
2019-05-12T10:15:44.443Z,102376.00
2019-05-12T10:18:14.826Z,102387.00
2019-05-12T10:20:45.502Z,102394.00
2019-05-12T10:23:20.654Z,102386.00
2019-05-12T10:25:47.998Z,102389.00
2019-05-12T10:28:19.244Z,102402.00
2019-05-12T10:30:55.300Z,102407.00
2019-05-12T10:33:23.232Z,102412.00
2019-05-12T10:35:54.238Z,102406.00
2019-05-12T10:38:24.648Z,102405.00
2019-05-12T10:40:55.154Z,102392.00
2019-05-12T10:43:25.796Z,102411.00
2019-05-12T10:45:56.808Z,102408.00
2019-05-12T10:48:28.181Z,102405.00
2019-05-12T10:50:58.587Z,102403.00
2019-05-12T10:53:29.669Z,102408.00
2019-05-12T10:56:00.237Z,102399.00
2019-05-12T10:58:33.471Z,102402.00
2019-05-12T11:01:07.416Z,102403.00
2019-05-12T11:03:36.394Z,102409.00
2019-05-12T11:06:07.823Z,102411.00
2019-05-12T11:08:41.298Z,102406.00
2019-05-12T11:11:10.902Z,102419.00
2019-05-12T11:13:48.263Z,102430.00
2019-05-12T11:16:16.698Z,102423.00
2019-05-12T11:18:46.161Z,102435.00
2019-05-12T11:21:16.565Z,102446.00
2019-05-12T11:23:47.203Z,102442.00
2019-05-12T11:26:17.653Z,102454.00
2019-05-12T11:28:48.443Z,102453.00
2019-05-12T11:31:18.835Z,102452.00
2019-05-12T11:33:49.564Z,102448.00
2019-05-12T11:36:19.945Z,102451.00
2019-05-12T11:38:50.823Z,102443.00
2019-05-12T11:41:28.086Z,102454.00
2019-05-12T11:43:54.296Z,102459.00
2019-05-12T11:46:24.998Z,102465.00
2019-05-12T11:48:55.363Z,102459.00
2019-05-12T11:51:29.170Z,102451.00
2019-05-12T11:53:57.989Z,102451.00
2019-05-12T11:56:28.917Z,102449.00
2019-05-12T11:58:59.807Z,102447.00
2019-05-12T12:01:30.763Z,102438.00
2019-05-12T12:04:01.215Z,102449.00
2019-05-12T12:06:33.143Z,102455.00
2019-05-12T12:09:09.218Z,102455.00
2019-05-12T12:11:38.250Z,102456.00
2019-05-12T12:14:10.597Z,102461.00
2019-05-12T12:16:41.929Z,102477.00
2019-05-12T12:19:13.731Z,102488.00
2019-05-12T12:21:46.191Z,102491.00
2019-05-12T12:24:21.385Z,102489.00
2019-05-12T12:26:48.664Z,102491.00
2019-05-12T12:29:19.037Z,102497.00
2019-05-12T12:31:53.456Z,102497.00
2019-05-12T12:34:29.818Z,102488.00
2019-05-12T12:36:58.022Z,102489.00
2019-05-12T12:39:28.780Z,102494.00
2019-05-12T12:42:00.707Z,102499.00
2019-05-12T12:44:33.953Z,102495.00
2019-05-12T12:47:04.867Z,102494.00
2019-05-12T12:49:39.825Z,102488.00
2019-05-12T12:52:07.588Z,102497.00
2019-05-12T12:54:39.328Z,102496.00
2019-05-12T12:57:10.199Z,102487.00
2019-05-12T12:59:42.896Z,102493.00
2019-05-12T13:02:14.218Z,102492.00
2019-05-12T13:04:50.042Z,102484.00
2019-05-12T13:07:17.598Z,102494.00
2019-05-12T13:10:07.338Z,102499.00
2019-05-12T13:12:35.819Z,102515.00
2019-05-12T13:15:08.121Z,102505.00
2019-05-12T13:17:41.846Z,102507.00
2019-05-12T13:20:12.199Z,102516.00
2019-05-12T13:22:44.377Z,102508.00
2019-05-12T13:25:15.780Z,102502.00
2019-05-12T13:27:46.164Z,102509.00
2019-05-12T13:30:21.164Z,102514.00
2019-05-12T13:32:49.461Z,102515.00
2019-05-12T13:35:20.427Z,102506.00
2019-05-12T13:37:56.507Z,102502.00
2019-05-12T13:40:23.451Z,102510.00
2019-05-12T13:42:54.439Z,102506.00
2019-05-12T13:45:25.255Z,102507.00
2019-05-12T13:47:55.978Z,102517.00
2019-05-12T13:50:27.205Z,102520.00
2019-05-12T13:53:01.132Z,102517.00
2019-05-12T13:55:30.528Z,102509.00
2019-05-12T13:58:00.937Z,102499.00
2019-05-12T14:00:33.477Z,102515.00
2019-05-12T14:03:08.194Z,102520.00
2019-05-12T14:05:35.557Z,102536.00
2019-05-12T14:08:06.211Z,102534.00
2019-05-12T14:10:37.618Z,102532.00
2019-05-12T14:13:08.698Z,102545.00
2019-05-12T14:15:39.982Z,102546.00
2019-05-12T14:18:16.489Z,102543.00
2019-05-12T14:20:45.106Z,102554.00
2019-05-12T14:23:17.621Z,102553.00
2019-05-12T14:25:48.086Z,102548.00
2019-05-12T14:28:19.143Z,102552.00
2019-05-12T14:30:54.355Z,102541.00
2019-05-12T14:33:24.789Z,102534.00
2019-05-12T14:35:55.414Z,102524.00
2019-05-12T14:38:29.614Z,102526.00
2019-05-12T14:41:01.402Z,102522.00
2019-05-12T14:43:30.485Z,102531.00
2019-05-12T14:46:08.479Z,102534.00
2019-05-12T14:48:33.971Z,102539.00
2019-05-12T14:51:04.367Z,102539.00
2019-05-12T14:53:38.231Z,102544.00
2019-05-12T14:56:06.872Z,102542.00
2019-05-12T14:58:37.212Z,102542.00
2019-05-12T15:01:09.742Z,102527.00
2019-05-12T15:03:47.522Z,102538.00
2019-05-12T15:06:14.405Z,102531.00
2019-05-12T15:08:44.888Z,102529.00
2019-05-12T15:11:15.519Z,102529.00
2019-05-12T15:13:46.123Z,102531.00
2019-05-12T15:16:16.837Z,102530.00
2019-05-12T15:18:48.941Z,102525.00
2019-05-12T15:21:21.285Z,102538.00
2019-05-12T15:23:53.321Z,102545.00
2019-05-12T15:26:24.350Z,102559.00
2019-05-12T15:28:54.987Z,102548.00
2019-05-12T15:31:27.551Z,102564.00
2019-05-12T15:33:58.024Z,102571.00
2019-05-12T15:36:28.413Z,102573.00
2019-05-12T15:38:59.130Z,102571.00
2019-05-12T15:41:29.565Z,102571.00
2019-05-12T15:44:00.167Z,102575.00
2019-05-12T15:46:33.090Z,102581.00
2019-05-12T15:49:03.528Z,102589.00
2019-05-12T15:51:38.548Z,102584.00
2019-05-12T15:54:11.477Z,102588.00
2019-05-12T15:56:38.675Z,102595.00
2019-05-12T15:59:09.084Z,102596.00
2019-05-12T16:01:39.437Z,102593.00
2019-05-12T16:04:11.988Z,102595.00
2019-05-12T16:06:52.610Z,102596.00
2019-05-12T16:09:14.776Z,102597.00
2019-05-12T16:11:45.353Z,102592.00
2019-05-12T16:14:15.701Z,102594.00
2019-05-12T16:16:47.149Z,102599.00
2019-05-12T16:19:18.049Z,102604.00
2019-05-12T16:21:48.506Z,102597.00
2019-05-12T16:24:19.398Z,102605.00
2019-05-12T16:26:51.974Z,102598.00
2019-05-12T16:29:23.262Z,102612.00
2019-05-12T16:31:54.578Z,102603.00
2019-05-12T16:34:25.759Z,102609.00
2019-05-12T16:36:58.438Z,102611.00
2019-05-12T16:39:35.447Z,102615.00
2019-05-12T16:42:09.022Z,102612.00
2019-05-12T16:44:38.287Z,102610.00
2019-05-12T16:47:18.332Z,102638.00
2019-05-12T16:49:46.625Z,102630.00
2019-05-12T16:52:17.692Z,102621.00
2019-05-12T16:54:48.302Z,102625.00
2019-05-12T16:57:19.245Z,102623.00
2019-05-12T16:59:55.481Z,102620.00
2019-05-12T17:02:24.775Z,102622.00
2019-05-12T17:04:55.788Z,102624.00
2019-05-12T17:07:27.247Z,102623.00
2019-05-12T17:10:03.047Z,102629.00
2019-05-12T17:12:32.655Z,102628.00
2019-05-12T17:15:04.183Z,102633.00
2019-05-12T17:17:35.406Z,102642.00
2019-05-12T17:20:07.786Z,102644.00
2019-05-12T17:22:39.020Z,102654.00
2019-05-12T17:25:10.671Z,102673.00
2019-05-12T17:27:44.499Z,102663.00
2019-05-12T17:30:15.613Z,102671.00
2019-05-12T17:32:57.780Z,102663.00
2019-05-12T17:35:20.316Z,102668.00
2019-05-12T17:37:50.692Z,102676.00
2019-05-12T17:40:24.321Z,102687.00
2019-05-12T17:42:57.522Z,102684.00
2019-05-12T17:45:26.883Z,102692.00
2019-05-12T17:48:03.033Z,102700.00
2019-05-12T17:50:30.987Z,102695.00
2019-05-12T17:53:04.572Z,102706.00
2019-05-12T17:55:35.919Z,102709.00
2019-05-12T17:58:07.985Z,102709.00
2019-05-12T18:00:41.414Z,102711.00
2019-05-12T18:03:18.149Z,102714.00
2019-05-12T18:05:47.929Z,102712.00
2019-05-12T18:08:23.990Z,102709.00
2019-05-12T18:10:54.301Z,102717.00
2019-05-12T18:13:28.300Z,102720.00
2019-05-12T18:16:05.594Z,102735.00
2019-05-12T18:18:38.075Z,102732.00
2019-05-12T18:21:07.135Z,102740.00
2019-05-12T18:23:37.948Z,102734.00
2019-05-12T18:26:11.444Z,102744.00
2019-05-12T18:28:44.902Z,102747.00
2019-05-12T18:31:15.873Z,102742.00
2019-05-12T18:33:52.020Z,102755.00
2019-05-12T18:36:20.231Z,102747.00
2019-05-12T18:38:56.026Z,102755.00
2019-05-12T18:41:24.447Z,102764.00
2019-05-12T18:43:55.038Z,102764.00
2019-05-12T18:46:27.350Z,102755.00
2019-05-12T18:49:03.717Z,102762.00
2019-05-12T18:51:34.307Z,102764.00
2019-05-12T18:54:10.261Z,102766.00
2019-05-12T18:56:38.531Z,102755.00
2019-05-12T18:59:11.817Z,102771.00
2019-05-12T19:01:43.495Z,102756.00
2019-05-12T19:04:14.438Z,102761.00
2019-05-12T19:06:45.814Z,102770.00
2019-05-12T19:09:16.139Z,102769.00
2019-05-12T19:11:46.904Z,102775.00
2019-05-12T19:14:17.315Z,102777.00
2019-05-12T19:16:47.694Z,102782.00
2019-05-12T19:19:19.957Z,102783.00
2019-05-12T19:21:58.718Z,102788.00
2019-05-12T19:24:23.445Z,102795.00
2019-05-12T19:26:54.240Z,102800.00
2019-05-12T19:29:29.777Z,102802.00
2019-05-12T19:31:58.162Z,102818.00
2019-05-12T19:34:31.816Z,102824.00
2019-05-12T19:37:03.331Z,102832.00
2019-05-12T19:39:35.043Z,102825.00
2019-05-12T19:42:05.374Z,102822.00
2019-05-12T19:44:36.821Z,102831.00
2019-05-12T19:47:07.592Z,102842.00
2019-05-12T19:49:49.918Z,102836.00
2019-05-12T19:52:10.060Z,102841.00
2019-05-12T19:54:40.719Z,102845.00
2019-05-12T19:57:15.595Z,102849.00
2019-05-12T19:59:50.573Z,102854.00
2019-05-12T20:02:15.974Z,102851.00
2019-05-12T20:04:51.866Z,102858.00
2019-05-12T20:07:18.668Z,102859.00
2019-05-12T20:09:56.079Z,102863.00
2019-05-12T20:12:23.970Z,102854.00
2019-05-12T20:14:56.867Z,102865.00
2019-05-12T20:17:25.986Z,102866.00
2019-05-12T20:19:56.464Z,102869.00
2019-05-12T20:22:26.794Z,102873.00
2019-05-12T20:24:57.515Z,102878.00
2019-05-12T20:27:28.205Z,102873.00
2019-05-12T20:29:59.146Z,102883.00
2019-05-12T20:32:29.704Z,102877.00
2019-05-12T20:35:00.195Z,102877.00
2019-05-12T20:37:30.641Z,102887.00
2019-05-12T20:40:05.264Z,102882.00
2019-05-12T20:42:44.006Z,102883.00
2019-05-12T20:45:09.120Z,102888.00
2019-05-12T20:47:45.111Z,102897.00
2019-05-12T20:50:14.454Z,102906.00
2019-05-12T20:52:52.258Z,102903.00
2019-05-12T20:55:23.425Z,102907.00
2019-05-12T20:57:56.831Z,102916.00
2019-05-12T21:00:38.999Z,102911.00
2019-05-12T21:03:08.123Z,102912.00
2019-05-12T21:05:38.734Z,102911.00
2019-05-12T21:08:12.134Z,102912.00
2019-05-12T21:10:43.609Z,102915.00
2019-05-12T21:13:14.696Z,102914.00
2019-05-12T21:15:46.102Z,102924.00
2019-05-12T21:18:17.021Z,102922.00
2019-05-12T21:20:52.475Z,102931.00
2019-05-12T21:23:19.399Z,102930.00
2019-05-12T21:25:52.430Z,102928.00
2019-05-12T21:28:23.818Z,102929.00
2019-05-12T21:30:55.804Z,102928.00
2019-05-12T21:33:31.406Z,102935.00
2019-05-12T21:35:58.702Z,102937.00
2019-05-12T21:38:29.725Z,102936.00
2019-05-12T21:41:02.130Z,102939.00
2019-05-12T21:43:32.846Z,102941.00
2019-05-12T21:46:07.869Z,102939.00
2019-05-12T21:48:36.343Z,102946.00
2019-05-12T21:51:09.787Z,102950.00
2019-05-12T21:53:39.493Z,102950.00
2019-05-12T21:56:09.860Z,102952.00
2019-05-12T21:58:45.321Z,102949.00
2019-05-12T22:01:13.562Z,102952.00
2019-05-12T22:03:45.999Z,102956.00
2019-05-12T22:06:21.796Z,102950.00
2019-05-12T22:09:01.061Z,102951.00
2019-05-12T22:11:25.780Z,102954.00
2019-05-12T22:14:00.268Z,102954.00
2019-05-12T22:16:29.503Z,102949.00
2019-05-12T22:19:03.487Z,102954.00
2019-05-12T22:21:35.781Z,102956.00
2019-05-12T22:24:08.528Z,102965.00
2019-05-12T22:26:40.361Z,102967.00
2019-05-12T22:29:13.534Z,102960.00
2019-05-12T22:31:47.990Z,102971.00
2019-05-12T22:34:16.078Z,102967.00
2019-05-12T22:36:57.798Z,102969.00
2019-05-12T22:39:18.992Z,102972.00
2019-05-12T22:41:49.859Z,102971.00
2019-05-12T22:44:22.170Z,102975.00
2019-05-12T22:46:54.088Z,102978.00
2019-05-12T22:49:24.559Z,102972.00
2019-05-12T22:52:02.853Z,102977.00
2019-05-12T22:54:27.340Z,102987.00
2019-05-12T22:56:57.846Z,102981.00
2019-05-12T22:59:34.414Z,102987.00
2019-05-12T23:02:00.230Z,102983.00
2019-05-12T23:04:35.655Z,102982.00
2019-05-12T23:07:03.339Z,102974.00
2019-05-12T23:09:34.376Z,102983.00
2019-05-12T23:12:09.725Z,102981.00
2019-05-12T23:14:37.014Z,102988.00
2019-05-12T23:17:07.782Z,102988.00
2019-05-12T23:19:45.332Z,102980.00
2019-05-12T23:22:11.037Z,102984.00
2019-05-12T23:24:41.417Z,102984.00
2019-05-12T23:27:28.160Z,102986.00
2019-05-12T23:29:54.777Z,102999.00
2019-05-12T23:32:25.533Z,102989.00
2019-05-12T23:34:58.520Z,102993.00
2019-05-12T23:37:30.223Z,102988.00
2019-05-12T23:40:00.215Z,102982.00
2019-05-12T23:42:30.740Z,102992.00
2019-05-12T23:45:03.481Z,102999.00
2019-05-12T23:47:34.326Z,102992.00
2019-05-12T23:50:05.546Z,102999.00
2019-05-12T23:52:35.918Z,102997.00
2019-05-12T23:55:06.470Z,102988.00
2019-05-12T23:57:36.817Z,102988.00
